Falken — SBCH — position and weather

sailwx.info

Track history (hours):
 
Tides and Currents Weather Stations Pressure Air Temp Water Temp Dewpoint Dewpoint Depression Visibility Wind Speed Wind Dir Waves Ship Positions

Falken (Sweden)

Last reported at 2018-May-23 21:59 UTC. Time now 2018-May-23 22:25 UTC.
Position N 56°09' E 015°35'.

Length 40 m; draft 4.2 m.

Type: Sailing vessel. MMSI: 265070000.

Date/timePositionNaut miles runAvg speedWind from/ knotsBaromVisibWave heightAir tempDewpointWater temp
2018-May-23 21:59N 56°09' E 015°35'0 0.0
2018-May-23 21:29N 56°09' E 015°35'0 0.0
2018-May-23 20:59N 56°09' E 015°35'0 0.0
2018-May-23 20:29N 56°09' E 015°35'0 0.0
2018-May-23 19:59N 56°09' E 015°35'0 0.0
2018-May-23 19:29N 56°09' E 015°35'0 0.0
2018-May-23 18:59N 56°09' E 015°35'0 0.0
2018-May-23 18:29N 56°09' E 015°35'0 0.0
2018-May-23 17:59N 56°09' E 015°35'0 0.0
2018-May-23 17:29N 56°09' E 015°35'0 0.0
2018-May-23 16:59N 56°09' E 015°35'0 0.0
2018-May-23 16:29N 56°09' E 015°35'0 0.0
2018-May-23 15:59N 56°09' E 015°35'0 0.0
2018-May-23 15:29N 56°09' E 015°35'0 0.0
2018-May-23 14:59N 56°09' E 015°35'0 0.0
2018-May-23 14:29N 56°09' E 015°35'0 0.0
2018-May-23 13:59N 56°09' E 015°35'0 0.0
2018-May-23 13:29N 56°09' E 015°35'0 0.0
2018-May-23 12:59N 56°09' E 015°35'0 0.0
2018-May-23 12:29N 56°09' E 015°35'0 0.0
2018-May-23 11:59N 56°09' E 015°35'0 0.0
2018-May-23 11:29N 56°09' E 015°35'0 0.0
2018-May-23 10:59N 56°09' E 015°35'0 0.0
2018-May-23 10:29N 56°09' E 015°35'0 0.0
2018-May-23 09:59N 56°09' E 015°35'0 0.0
2018-May-23 09:29N 56°09' E 015°35'0 0.0
2018-May-23 08:59N 56°09' E 015°35'0 0.0
2018-May-23 08:29N 56°09' E 015°35'0 0.6
2018-May-23 08:00N 56°09' E 015°36'1 2.1
2018-May-23 07:30N 56°09' E 015°37'0 0.0
2018-May-23 06:58N 56°09' E 015°37'0 0.0
2018-May-23 06:28N 56°09' E 015°37'0 0.0
2018-May-23 05:58N 56°09' E 015°37'0 0.0
2018-May-23 05:28N 56°09' E 015°37'0 0.0
2018-May-23 04:58N 56°09' E 015°37'0 0.1
2018-May-23 04:28N 56°09' E 015°37'0 0.1
2018-May-23 03:58N 56°09' E 015°37'0 0.0
2018-May-23 03:28N 56°09' E 015°37'0 0.0
2018-May-23 02:58N 56°09' E 015°37'0 0.0
2018-May-23 02:28N 56°09' E 015°37'0 0.0
2018-May-23 01:58N 56°09' E 015°37'0 0.0
2018-May-23 01:28N 56°09' E 015°37'0 0.0
2018-May-23 00:58N 56°09' E 015°37'0 0.0
2018-May-23 00:28N 56°09' E 015°37'0 0.0
2018-May-22 23:55N 56°09' E 015°37'0 0.0
2018-May-22 23:28N 56°09' E 015°37'0 0.0
2018-May-22 22:58N 56°09' E 015°37'0 0.0
2018-May-22 22:28N 56°09' E 015°37'0 0.0
2018-May-22 21:58N 56°09' E 015°37'0 0.0
2018-May-22 21:28N 56°09' E 015°37'0 0.0
2018-May-22 20:58N 56°09' E 015°37'0 0.0
2018-May-22 20:28N 56°09' E 015°37'0 0.0
2018-May-22 19:58N 56°09' E 015°37'0 0.0
2018-May-22 19:28N 56°09' E 015°37'0 0.0
2018-May-22 18:58N 56°09' E 015°37'0 0.0
2018-May-22 18:28N 56°09' E 015°37'0 0.0
2018-May-22 17:58N 56°09' E 015°37'0 0.0
2018-May-22 17:28N 56°09' E 015°37'0 0.0
2018-May-22 16:58N 56°09' E 015°37'0 0.0
2018-May-22 16:28N 56°09' E 015°37'0 0.0
2018-May-22 15:59N 56°09' E 015°37'0 0.9
2018-May-22 15:30N 56°08' E 015°36'4 8.6
2018-May-22 15:00N 56°04' E 015°34'4 7.6
2018-May-22 14:30N 56°03' E 015°27'4 8.0
2018-May-22 14:01N 56°04' E 015°20'1 2.4
2018-May-22 13:30N 56°04' E 015°18'3 6.2
2018-May-22 13:00N 56°05' E 015°13'2 4.5
2018-May-22 12:30N 56°05' E 015°09'4 8.7
2018-May-22 12:01N 56°06' E 015°01'4 8.5
2018-May-22 11:30N 56°08' E 014°54'2 1.3
2018-May-22 09:37N 56°10' E 014°52'0 0.0
2018-May-22 09:20N 56°10' E 014°52'0 0.5
2018-May-22 08:59N 56°10' E 014°52'0 0.3
2018-May-22 08:30N 56°10' E 014°52'0 0.0
2018-May-22 04:37N 56°10' E 014°52'0 0.0
2018-May-22 04:28N 56°10' E 014°52'0 0.0
2018-May-22 03:55N 56°10' E 014°52'0 0.0
2018-May-22 03:25N 56°10' E 014°52'0 0.0
2018-May-22 02:55N 56°10' E 014°52'0 0.0
2018-May-22 02:25N 56°10' E 014°52'0 0.0
2018-May-22 01:55N 56°10' E 014°52'0 0.0
2018-May-22 01:25N 56°10' E 014°52'0 0.0
2018-May-22 00:55N 56°10' E 014°52'0 0.0
2018-May-22 00:25N 56°10' E 014°52'0 0.0
2018-May-21 21:25N 56°10' E 014°52'0 0.0
2018-May-21 20:55N 56°10' E 014°52'0 0.0
2018-May-21 20:13N 56°10' E 014°52'0 0.0
2018-May-21 17:29N 56°10' E 014°52'0 0.7
2018-May-21 17:00N 56°09' E 014°52'2 4.1
2018-May-21 16:30N 56°08' E 014°54'2 4.5
2018-May-21 16:00N 56°06' E 014°53'3 5.9
2018-May-21 15:31N 56°03' E 014°50'2 4.5
2018-May-21 15:00N 56°05' E 014°50'1 1.3
2018-May-21 14:30N 56°06' E 014°50'4 8.7
2018-May-21 14:01N 56°02' E 014°48'4 8.6
2018-May-21 13:30N 55°58' E 014°46'2 4.5
2018-May-21 12:59N 55°55' E 014°44'1 2.2
2018-May-21 12:30N 55°55' E 014°43'2 3.3
2018-May-21 12:00N 55°56' E 014°42'2 3.2
2018-May-21 11:30N 55°57' E 014°41'2 3.3
2018-May-21 11:00N 55°56' E 014°41'1 2.5
2018-May-21 10:30N 55°55' E 014°42'3 5.8
2018-May-21 10:00N 55°54' E 014°37'4 8.4
2018-May-21 09:30N 55°55' E 014°29'4 8.0
2018-May-21 09:00N 55°56' E 014°22'2 0.3
2018-May-21 02:39N 55°56' E 014°18'0 0.0
2018-May-20 12:54N 55°56' E 014°19'2 4.9
2018-May-20 12:28N 55°56' E 014°23'3 5.7
2018-May-20 12:00N 55°55' E 014°27'3 5.5
2018-May-20 11:30N 55°52' E 014°28'5 9.1
2018-May-20 11:00N 55°48' E 014°28'5 9.4
2018-May-20 10:29N 55°43' E 014°27'5 9.3
2018-May-20 10:00N 55°39' E 014°25'5 9.4
2018-May-20 09:30N 55°34' E 014°24'5 9.6
2018-May-20 09:00N 55°30' E 014°21'5 9.7
2018-May-20 08:31N 55°25' E 014°17'5 9.3
2018-May-20 08:01N 55°22' E 014°12'5 9.1
2018-May-20 07:30N 55°22' E 014°04'4 8.7
2018-May-20 07:00N 55°22' E 013°56'4 8.5
2018-May-20 06:30N 55°24' E 013°49'2 0.3
2018-May-19 23:51N 55°26' E 013°49'0 0.0
2018-May-19 23:30N 55°26' E 013°49'0 0.0
2018-May-19 15:29N 55°26' E 013°49'4 6.7
2018-May-19 14:55N 55°23' E 013°44'5 9.6
2018-May-19 14:25N 55°21' E 013°36'8 9.5
2018-May-19 13:35N 55°18' E 013°24'1 9.4
2018-May-19 13:30N 55°18' E 013°22'5 9.4
2018-May-19 13:00N 55°17' E 013°14'6 9.3
2018-May-19 12:24N 55°16' E 013°05'4 9.0
2018-May-19 12:00N 55°16' E 012°58'5 9.0
2018-May-19 11:30N 55°15' E 012°50'4 9.0
2018-May-19 11:01N 55°17' E 012°43'4 7.9
2018-May-19 10:31N 55°20' E 012°39'5 9.2
2018-May-19 10:00N 55°25' E 012°40'5 9.0
2018-May-19 09:31N 55°29' E 012°43'4 8.7
2018-May-19 09:00N 55°33' E 012°47'4 8.5
2018-May-19 08:30N 55°36' E 012°52'4 7.8
2018-May-19 08:00N 55°38' E 012°58'2 3.2
2018-May-19 07:30N 55°37' E 012°60'0 0.0
2018-May-19 06:08N 55°37' E 012°60'0 0.0
2018-May-19 05:44N 55°37' E 012°60'0 0.0
2018-May-19 05:26N 55°37' E 012°60'0 0.0
2018-May-19 04:32N 55°37' E 012°60'0 0.0
2018-May-19 03:32N 55°37' E 012°60'0 0.0
2018-May-19 03:29N 55°37' E 012°60'0 0.0
2018-May-19 02:57N 55°37' E 012°60'0 0.0
2018-May-19 02:18N 55°37' E 012°60'0 0.0
2018-May-19 01:21N 55°37' E 012°59'0 0.0
2018-May-19 00:57N 55°37' E 012°60'0 0.0
2018-May-19 00:24N 55°37' E 012°60'0 0.0
2018-May-18 23:57N 55°37' E 012°60'0 0.0
2018-May-18 23:30N 55°37' E 012°60'0 0.0
2018-May-18 22:54N 55°37' E 012°59'0 0.0
2018-May-18 22:30N 55°37' E 012°60'0 0.0
2018-May-18 21:57N 55°37' E 012°60'0 0.0
2018-May-18 21:30N 55°37' E 012°60'0 0.0
2018-May-18 21:00N 55°37' E 012°60'0 0.0
2018-May-18 20:30N 55°37' E 012°60'0 0.0
2018-May-18 20:00N 55°37' E 012°60'0 0.0
2018-May-18 19:27N 55°37' E 012°60'0 0.0
2018-May-18 19:00N 55°37' E 012°59'0 0.0
2018-May-18 18:27N 55°37' E 012°60'0 0.0
2018-May-18 17:57N 55°37' E 012°60'0 0.0
2018-May-18 17:21N 55°37' E 012°60'0 0.0
2018-May-18 17:00N 55°37' E 012°60'0 0.0
2018-May-18 16:30N 55°37' E 012°59'0 0.0
2018-May-18 16:00N 55°37' E 012°59'0 0.0
2018-May-18 15:21N 55°37' E 012°60'0 0.0
2018-May-18 14:51N 55°37' E 012°60'0 0.0
2018-May-18 14:21N 55°37' E 012°60'0 0.0
2018-May-18 13:59N 55°37' E 012°60'0 0.0
2018-May-18 13:30N 55°37' E 012°60'0 0.2
2018-May-18 13:01N 55°37' E 012°60'1 2.1
2018-May-18 12:30N 55°38' E 012°58'1 1.3
2018-May-18 12:01N 55°38' E 012°58'4 7.1
2018-May-18 11:30N 55°41' E 012°54'4 7.5
2018-May-18 11:01N 55°45' E 012°51'4 7.5
2018-May-18 10:30N 55°48' E 012°48'4 7.3
2018-May-18 10:01N 55°51' E 012°45'3 6.2
2018-May-18 09:30N 55°54' E 012°44'0 0.1
2018-May-18 09:01N 55°54' E 012°44'1 1.0
2018-May-18 08:30N 55°55' E 012°44'3 5.5
2018-May-18 08:01N 55°57' E 012°42'4 7.7
2018-May-18 07:31N 56°01' E 012°41'2 3.3
2018-May-18 06:58N 56°03' E 012°41'0 0.0
2018-May-18 06:28N 56°03' E 012°41'0 0.0
2018-May-18 02:58N 56°03' E 012°41'0 0.0
2018-May-18 01:46N 56°03' E 012°41'0 0.0
2018-May-18 00:52N 56°03' E 012°41'0 0.0
2018-May-18 00:13N 56°03' E 012°41'0 0.0
2018-May-17 23:58N 56°03' E 012°41'0 0.0
2018-May-17 23:28N 56°03' E 012°41'0 0.0
2018-May-17 22:58N 56°03' E 012°41'0 0.0
2018-May-17 22:25N 56°03' E 012°41'0 0.0
2018-May-17 21:55N 56°03' E 012°41'0 0.0
2018-May-17 21:28N 56°03' E 012°41'0 0.0
2018-May-17 20:58N 56°03' E 012°41'0 0.0
2018-May-17 20:28N 56°03' E 012°41'0 0.0
2018-May-17 19:58N 56°03' E 012°41'0 0.0
2018-May-17 19:28N 56°03' E 012°41'0 0.0
2018-May-17 18:58N 56°03' E 012°41'0 0.0
2018-May-17 18:28N 56°03' E 012°41'0 0.0
2018-May-17 17:58N 56°03' E 012°41'0 0.0
2018-May-17 17:28N 56°03' E 012°41'1 1.6
2018-May-17 17:00N 56°02' E 012°41'2 3.3
2018-May-17 16:31N 56°00' E 012°41'1 1.0
2018-May-17 16:01N 56°01' E 012°40'3 6.0
2018-May-17 15:30N 56°03' E 012°38'4 6.6
2018-May-17 14:58N 56°06' E 012°34'3 7.0
2018-May-17 14:30N 56°09' E 012°31'15 4.9
2018-May-17 11:26N 56°23' E 012°24'3 5.7
2018-May-17 10:56N 56°26' E 012°24'4 9.5
2018-May-17 10:28N 56°30' E 012°22'5 9.4
2018-May-17 09:59N 56°35' E 012°21'5 9.4
2018-May-17 09:28N 56°40' E 012°20'5 9.5
2018-May-17 08:58N 56°44' E 012°19'6 9.6
2018-May-17 08:23N 56°50' E 012°17'4 9.6
2018-May-17 08:00N 56°54' E 012°16'5 9.7
2018-May-17 07:31N 56°58' E 012°15'5 9.7
2018-May-17 07:01N 57°03' E 012°14'4 1.3
2018-May-17 04:23N 57°07' E 012°15'0 0.0
2018-May-17 03:05N 57°07' E 012°15'0 0.0
2018-May-17 02:56N 57°07' E 012°15'0 0.0
2018-May-17 02:29N 57°07' E 012°15'0 0.0
2018-May-17 01:56N 57°07' E 012°15'0 0.0
2018-May-17 01:14N 57°07' E 012°15'0 0.0
2018-May-17 00:59N 57°07' E 012°15'0 0.0
2018-May-17 00:20N 57°07' E 012°15'0 0.0
2018-May-16 23:59N 57°07' E 012°15'0 0.0
2018-May-16 23:29N 57°07' E 012°15'0 0.0
2018-May-16 22:44N 57°07' E 012°15'0 0.0
2018-May-16 22:29N 57°07' E 012°15'0 0.0
2018-May-16 21:59N 57°07' E 012°15'0 0.0
2018-May-16 21:29N 57°07' E 012°15'0 0.0
2018-May-16 20:56N 57°07' E 012°15'0 0.0
2018-May-16 20:26N 57°07' E 012°15'0 0.0
2018-May-16 19:50N 57°07' E 012°15'0 0.0
2018-May-16 19:29N 57°07' E 012°15'0 0.0
2018-May-16 18:47N 57°07' E 012°15'0 0.0
2018-May-16 18:29N 57°07' E 012°15'0 0.0
2018-May-16 17:59N 57°07' E 012°15'0 0.0
2018-May-16 17:23N 57°07' E 012°15'0 0.0
2018-May-16 17:00N 57°07' E 012°15'1 1.3
2018-May-16 16:31N 57°06' E 012°14'1 2.6
2018-May-16 16:00N 57°05' E 012°12'0 0.9
2018-May-16 15:29N 57°05' E 012°12'2 3.5
2018-May-16 15:00N 57°06' E 012°10'2 4.0
2018-May-16 14:30N 57°07' E 012°07'2 3.3
2018-May-16 14:01N 57°09' E 012°05'2 3.3
2018-May-16 13:30N 57°10' E 012°03'2 3.1
2018-May-16 13:00N 57°11' E 012°02'1 2.4
2018-May-16 12:30N 57°13' E 012°01'1 2.9
2018-May-16 12:00N 57°14' E 011°60'1 2.8
2018-May-16 11:30N 57°15' E 011°58'2 3.7
2018-May-16 11:00N 57°17' E 011°57'1 1.7
2018-May-16 10:30N 57°17' E 011°56'0 0.7
2018-May-16 10:01N 57°18' E 011°57'0 0.6
2018-May-16 09:29N 57°18' E 011°56'0 0.3
2018-May-16 09:00N 57°18' E 011°56'1 1.3
2018-May-16 08:31N 57°17' E 011°56'0 0.3
2018-May-16 08:00N 57°17' E 011°56'0 0.8
2018-May-16 07:31N 57°17' E 011°56'4 8.0
2018-May-16 07:00N 57°21' E 011°59'0 0.7
2018-May-16 06:25N 57°21' E 011°59'0 0.0
2018-May-16 05:58N 57°21' E 011°59'0 0.0
2018-May-16 05:28N 57°21' E 011°59'0 0.0
2018-May-16 04:58N 57°21' E 011°59'0 0.0
2018-May-16 04:25N 57°21' E 011°59'0 0.0
2018-May-16 03:58N 57°21' E 011°59'0 0.0
2018-May-16 03:25N 57°21' E 011°59'0 0.0
2018-May-16 02:52N 57°21' E 011°59'0 0.0
2018-May-16 02:25N 57°21' E 011°59'0 0.0
2018-May-16 01:58N 57°21' E 011°59'0 0.0
2018-May-16 01:28N 57°21' E 011°59'0 0.0
2018-May-16 00:40N 57°21' E 011°59'0 0.0
2018-May-16 00:16N 57°21' E 011°59'0 0.0
2018-May-15 23:46N 57°21' E 011°59'0 0.0
2018-May-15 23:28N 57°21' E 011°59'0 0.0
2018-May-15 22:58N 57°21' E 011°59'0 0.0
2018-May-15 22:28N 57°22' E 011°59'0 0.0
2018-May-15 21:52N 57°22' E 011°59'0 0.0
2018-May-15 21:28N 57°22' E 011°59'0 0.0
2018-May-15 20:58N 57°22' E 011°59'0 0.0
2018-May-15 20:28N 57°22' E 011°59'0 0.0
2018-May-15 19:58N 57°21' E 011°59'0 0.0
2018-May-15 19:28N 57°21' E 011°59'0 0.0
2018-May-15 18:58N 57°21' E 011°59'0 0.1
2018-May-15 18:30N 57°22' E 011°59'3 5.3
2018-May-15 18:00N 57°20' E 011°55'5 9.9
2018-May-15 17:30N 57°24' E 011°52'4 7.9
2018-May-15 17:00N 57°28' E 011°50'3 5.6
2018-May-15 16:31N 57°31' E 011°49'3 5.8
2018-May-15 16:01N 57°34' E 011°48'3 6.2
2018-May-15 15:30N 57°37' E 011°49'3 5.1
2018-May-15 15:00N 57°39' E 011°48'2 3.6
2018-May-15 14:31N 57°41' E 011°46'3 5.1
2018-May-15 14:00N 57°41' E 011°41'2 3.3
2018-May-15 13:29N 57°42' E 011°40'0 0.0
2018-May-15 12:59N 57°42' E 011°40'0 0.0
2018-May-15 12:30N 57°42' E 011°40'0 0.2
2018-May-15 12:01N 57°43' E 011°40'0 0.5
2018-May-15 11:30N 57°42' E 011°40'0 0.0
2018-May-15 11:00N 57°42' E 011°40'0 0.0
2018-May-15 10:30N 57°42' E 011°40'0 0.0
2018-May-15 10:00N 57°42' E 011°40'0 0.0
2018-May-15 09:30N 57°42' E 011°40'0 0.0
2018-May-15 09:00N 57°42' E 011°40'0 0.0
2018-May-15 08:30N 57°42' E 011°40'0 0.0
2018-May-15 08:00N 57°42' E 011°40'0 0.0
2018-May-15 07:30N 57°42' E 011°40'0 0.0
2018-May-15 07:00N 57°42' E 011°40'0 0.0
2018-May-15 06:30N 57°42' E 011°40'0 0.0
2018-May-15 06:00N 57°42' E 011°40'0 0.0
2018-May-15 05:30N 57°42' E 011°40'0 0.0
2018-May-15 05:00N 57°42' E 011°40'0 0.0
2018-May-15 04:30N 57°42' E 011°40'0 0.0
2018-May-15 04:00N 57°42' E 011°40'0 0.0
2018-May-15 03:30N 57°42' E 011°40'0 0.0
2018-May-15 03:00N 57°42' E 011°40'0 0.0
2018-May-15 02:30N 57°42' E 011°40'0 0.0
2018-May-15 02:00N 57°42' E 011°40'0 0.0
2018-May-15 01:30N 57°42' E 011°40'0 0.0
2018-May-15 01:00N 57°42' E 011°40'0 0.0
2018-May-15 00:30N 57°42' E 011°40'0 0.0
2018-May-15 00:00N 57°42' E 011°40'0 0.0
2018-May-14 23:30N 57°42' E 011°40'0 0.0
2018-May-14 23:00N 57°42' E 011°40'0 0.0
2018-May-14 22:30N 57°42' E 011°40'0 0.0
2018-May-14 22:00N 57°42' E 011°40'0 0.0
2018-May-14 21:30N 57°42' E 011°40'0 0.0
2018-May-14 21:00N 57°42' E 011°40'0 0.0
2018-May-14 20:30N 57°42' E 011°40'0 0.0
2018-May-14 20:00N 57°42' E 011°40'0 0.0
2018-May-14 19:30N 57°42' E 011°40'0 0.0
2018-May-14 19:00N 57°42' E 011°40'0 0.0
2018-May-14 18:30N 57°42' E 011°40'0 0.0
2018-May-14 18:00N 57°42' E 011°40'0 0.0
2018-May-14 17:30N 57°42' E 011°40'0 0.0
2018-May-14 17:00N 57°42' E 011°40'0 0.0
2018-May-14 16:30N 57°42' E 011°40'0 0.0
2018-May-14 16:00N 57°42' E 011°40'0 0.0
2018-May-14 15:30N 57°42' E 011°40'0 0.0
2018-May-14 15:00N 57°42' E 011°40'0 0.0
2018-May-14 14:30N 57°42' E 011°40'0 0.0
2018-May-14 14:00N 57°42' E 011°40'0 0.0
2018-May-14 13:30N 57°42' E 011°40'0 0.0
2018-May-14 13:00N 57°42' E 011°40'1 1.2
2018-May-14 12:30N 57°43' E 011°40'2 3.2
2018-May-14 12:00N 57°45' E 011°40'2 4.1
2018-May-14 11:31N 57°47' E 011°39'2 3.9
2018-May-14 11:00N 57°48' E 011°38'2 3.0
2018-May-14 10:30N 57°50' E 011°36'2 3.6
2018-May-14 10:00N 57°51' E 011°34'2 3.0
2018-May-14 09:30N 57°52' E 011°33'1 2.6
2018-May-14 09:01N 57°53' E 011°35'0 0.6
2018-May-14 08:28N 57°53' E 011°35'0 0.0
2018-May-14 07:58N 57°53' E 011°35'0 0.1
2018-May-14 07:28N 57°53' E 011°35'0 0.0
2018-May-14 06:58N 57°53' E 011°35'0 0.0
2018-May-14 06:28N 57°53' E 011°35'0 0.0
2018-May-14 05:58N 57°53' E 011°35'0 0.0
2018-May-14 05:28N 57°53' E 011°35'0 0.0
2018-May-14 04:58N 57°53' E 011°35'0 0.0
2018-May-14 04:28N 57°53' E 011°35'0 0.0
2018-May-14 03:58N 57°53' E 011°35'0 0.0
2018-May-14 03:25N 57°53' E 011°35'0 0.0
2018-May-14 02:58N 57°53' E 011°35'0 0.0
2018-May-14 02:28N 57°53' E 011°35'0 0.0
2018-May-14 01:58N 57°53' E 011°35'0 0.0
2018-May-14 01:28N 57°53' E 011°35'0 0.0
2018-May-14 00:58N 57°53' E 011°35'0 0.0
2018-May-14 00:28N 57°53' E 011°35'0 0.0
2018-May-13 23:58N 57°53' E 011°35'0 0.0
2018-May-13 23:28N 57°53' E 011°35'0 0.0
2018-May-13 22:58N 57°53' E 011°35'0 0.0
2018-May-13 22:28N 57°53' E 011°35'  
Track history (hours):
 
Tides and Currents Weather Stations Pressure Air Temp Water Temp Dewpoint Dewpoint Depression Visibility Wind Speed Wind Dir Waves Ship Positions

Falken (Sweden)

Last reported at 2018-May-23 21:59 UTC. Time now 2018-May-23 22:26 UTC.
Position N 56°09' E 015°35'.

Length 40 m; draft 4.2 m.

Type: Sailing vessel. MMSI: 265070000.

Date/timePositionNaut miles runAvg speedWind from/ knotsBaromVisibWave heightAir tempDewpointWater temp
2018-May-23 21:59N 56°09' E 015°35'0 0.0
2018-May-23 21:29N 56°09' E 015°35'0 0.0
2018-May-23 20:59N 56°09' E 015°35'0 0.0
2018-May-23 20:29N 56°09' E 015°35'0 0.0
2018-May-23 19:59N 56°09' E 015°35'0 0.0
2018-May-23 19:29N 56°09' E 015°35'0 0.0
2018-May-23 18:59N 56°09' E 015°35'0 0.0
2018-May-23 18:29N 56°09' E 015°35'0 0.0
2018-May-23 17:59N 56°09' E 015°35'0 0.0
2018-May-23 17:29N 56°09' E 015°35'0 0.0
2018-May-23 16:59N 56°09' E 015°35'0 0.0
2018-May-23 16:29N 56°09' E 015°35'0 0.0
2018-May-23 15:59N 56°09' E 015°35'0 0.0
2018-May-23 15:29N 56°09' E 015°35'0 0.0
2018-May-23 14:59N 56°09' E 015°35'0 0.0
2018-May-23 14:29N 56°09' E 015°35'0 0.0
2018-May-23 13:59N 56°09' E 015°35'0 0.0
2018-May-23 13:29N 56°09' E 015°35'0 0.0
2018-May-23 12:59N 56°09' E 015°35'0 0.0
2018-May-23 12:29N 56°09' E 015°35'0 0.0
2018-May-23 11:59N 56°09' E 015°35'0 0.0
2018-May-23 11:29N 56°09' E 015°35'0 0.0
2018-May-23 10:59N 56°09' E 015°35'0 0.0
2018-May-23 10:29N 56°09' E 015°35'0 0.0
2018-May-23 09:59N 56°09' E 015°35'0 0.0
2018-May-23 09:29N 56°09' E 015°35'0 0.0
2018-May-23 08:59N 56°09' E 015°35'0 0.0
2018-May-23 08:29N 56°09' E 015°35'0 0.6
2018-May-23 08:00N 56°09' E 015°36'1 2.1
2018-May-23 07:30N 56°09' E 015°37'0 0.0
2018-May-23 06:58N 56°09' E 015°37'0 0.0
2018-May-23 06:28N 56°09' E 015°37'0 0.0
2018-May-23 05:58N 56°09' E 015°37'0 0.0
2018-May-23 05:28N 56°09' E 015°37'0 0.0
2018-May-23 04:58N 56°09' E 015°37'0 0.1
2018-May-23 04:28N 56°09' E 015°37'0 0.1
2018-May-23 03:58N 56°09' E 015°37'0 0.0
2018-May-23 03:28N 56°09' E 015°37'0 0.0
2018-May-23 02:58N 56°09' E 015°37'0 0.0
2018-May-23 02:28N 56°09' E 015°37'0 0.0
2018-May-23 01:58N 56°09' E 015°37'0 0.0
2018-May-23 01:28N 56°09' E 015°37'0 0.0
2018-May-23 00:58N 56°09' E 015°37'0 0.0
2018-May-23 00:28N 56°09' E 015°37'0 0.0
2018-May-22 23:55N 56°09' E 015°37'0 0.0
2018-May-22 23:28N 56°09' E 015°37'0 0.0
2018-May-22 22:58N 56°09' E 015°37'0 0.0
2018-May-22 22:28N 56°09' E 015°37'0 0.0
2018-May-22 21:58N 56°09' E 015°37'0 0.0
2018-May-22 21:28N 56°09' E 015°37'0 0.0
2018-May-22 20:58N 56°09' E 015°37'0 0.0
2018-May-22 20:28N 56°09' E 015°37'0 0.0
2018-May-22 19:58N 56°09' E 015°37'0 0.0
2018-May-22 19:28N 56°09' E 015°37'0 0.0
2018-May-22 18:58N 56°09' E 015°37'0 0.0
2018-May-22 18:28N 56°09' E 015°37'0 0.0
2018-May-22 17:58N 56°09' E 015°37'0 0.0
2018-May-22 17:28N 56°09' E 015°37'0 0.0
2018-May-22 16:58N 56°09' E 015°37'0 0.0
2018-May-22 16:28N 56°09' E 015°37'0 0.0
2018-May-22 15:59N 56°09' E 015°37'0 0.9
2018-May-22 15:30N 56°08' E 015°36'4 8.6
2018-May-22 15:00N 56°04' E 015°34'4 7.6
2018-May-22 14:30N 56°03' E 015°27'4 8.0
2018-May-22 14:01N 56°04' E 015°20'1 2.4
2018-May-22 13:30N 56°04' E 015°18'3 6.2
2018-May-22 13:00N 56°05' E 015°13'2 4.5
2018-May-22 12:30N 56°05' E 015°09'4 8.7
2018-May-22 12:01N 56°06' E 015°01'4 8.5
2018-May-22 11:30N 56°08' E 014°54'2 1.3
2018-May-22 09:37N 56°10' E 014°52'0 0.0
2018-May-22 09:20N 56°10' E 014°52'0 0.5
2018-May-22 08:59N 56°10' E 014°52'0 0.3
2018-May-22 08:30N 56°10' E 014°52'0 0.0
2018-May-22 04:37N 56°10' E 014°52'0 0.0
2018-May-22 04:28N 56°10' E 014°52'0 0.0
2018-May-22 03:55N 56°10' E 014°52'0 0.0
2018-May-22 03:25N 56°10' E 014°52'0 0.0
2018-May-22 02:55N 56°10' E 014°52'0 0.0
2018-May-22 02:25N 56°10' E 014°52'0 0.0
2018-May-22 01:55N 56°10' E 014°52'0 0.0
2018-May-22 01:25N 56°10' E 014°52'0 0.0
2018-May-22 00:55N 56°10' E 014°52'0 0.0
2018-May-22 00:25N 56°10' E 014°52'0 0.0
2018-May-21 21:25N 56°10' E 014°52'0 0.0
2018-May-21 20:55N 56°10' E 014°52'0 0.0
2018-May-21 20:13N 56°10' E 014°52'0 0.0
2018-May-21 17:29N 56°10' E 014°52'0 0.7
2018-May-21 17:00N 56°09' E 014°52'2 4.1
2018-May-21 16:30N 56°08' E 014°54'2 4.5
2018-May-21 16:00N 56°06' E 014°53'3 5.9
2018-May-21 15:31N 56°03' E 014°50'2 4.5
2018-May-21 15:00N 56°05' E 014°50'1 1.3
2018-May-21 14:30N 56°06' E 014°50'4 8.7
2018-May-21 14:01N 56°02' E 014°48'4 8.6
2018-May-21 13:30N 55°58' E 014°46'2 4.5
2018-May-21 12:59N 55°55' E 014°44'1 2.2
2018-May-21 12:30N 55°55' E 014°43'2 3.3
2018-May-21 12:00N 55°56' E 014°42'2 3.2
2018-May-21 11:30N 55°57' E 014°41'2 3.3
2018-May-21 11:00N 55°56' E 014°41'1 2.5
2018-May-21 10:30N 55°55' E 014°42'3 5.8
2018-May-21 10:00N 55°54' E 014°37'4 8.4
2018-May-21 09:30N 55°55' E 014°29'4 8.0
2018-May-21 09:00N 55°56' E 014°22'2 0.3
2018-May-21 02:39N 55°56' E 014°18'0 0.0
2018-May-20 12:54N 55°56' E 014°19'2 4.9
2018-May-20 12:28N 55°56' E 014°23'3 5.7
2018-May-20 12:00N 55°55' E 014°27'3 5.5
2018-May-20 11:30N 55°52' E 014°28'5 9.1
2018-May-20 11:00N 55°48' E 014°28'5 9.4
2018-May-20 10:29N 55°43' E 014°27'5 9.3
2018-May-20 10:00N 55°39' E 014°25'5 9.4
2018-May-20 09:30N 55°34' E 014°24'5 9.6
2018-May-20 09:00N 55°30' E 014°21'5 9.7
2018-May-20 08:31N 55°25' E 014°17'5 9.3
2018-May-20 08:01N 55°22' E 014°12'5 9.1
2018-May-20 07:30N 55°22' E 014°04'4 8.7
2018-May-20 07:00N 55°22' E 013°56'4 8.5
2018-May-20 06:30N 55°24' E 013°49'2 0.3
2018-May-19 23:51N 55°26' E 013°49'0 0.0
2018-May-19 23:30N 55°26' E 013°49'0 0.0
2018-May-19 15:29N 55°26' E 013°49'4 6.7
2018-May-19 14:55N 55°23' E 013°44'5 9.6
2018-May-19 14:25N 55°21' E 013°36'8 9.5
2018-May-19 13:35N 55°18' E 013°24'1 9.4
2018-May-19 13:30N 55°18' E 013°22'5 9.4
2018-May-19 13:00N 55°17' E 013°14'6 9.3
2018-May-19 12:24N 55°16' E 013°05'4 9.0
2018-May-19 12:00N 55°16' E 012°58'5 9.0
2018-May-19 11:30N 55°15' E 012°50'4 9.0
2018-May-19 11:01N 55°17' E 012°43'4 7.9
2018-May-19 10:31N 55°20' E 012°39'5 9.2
2018-May-19 10:00N 55°25' E 012°40'5 9.0
2018-May-19 09:31N 55°29' E 012°43'4 8.7
2018-May-19 09:00N 55°33' E 012°47'4 8.5
2018-May-19 08:30N 55°36' E 012°52'4 7.8
2018-May-19 08:00N 55°38' E 012°58'2 3.2
2018-May-19 07:30N 55°37' E 012°60'0 0.0
2018-May-19 06:08N 55°37' E 012°60'0 0.0
2018-May-19 05:44N 55°37' E 012°60'0 0.0
2018-May-19 05:26N 55°37' E 012°60'0 0.0
2018-May-19 04:32N 55°37' E 012°60'0 0.0
2018-May-19 03:32N 55°37' E 012°60'0 0.0
2018-May-19 03:29N 55°37' E 012°60'0 0.0
2018-May-19 02:57N 55°37' E 012°60'0 0.0
2018-May-19 02:18N 55°37' E 012°60'0 0.0
2018-May-19 01:21N 55°37' E 012°59'0 0.0
2018-May-19 00:57N 55°37' E 012°60'0 0.0
2018-May-19 00:24N 55°37' E 012°60'0 0.0
2018-May-18 23:57N 55°37' E 012°60'0 0.0
2018-May-18 23:30N 55°37' E 012°60'0 0.0
2018-May-18 22:54N 55°37' E 012°59'0 0.0
2018-May-18 22:30N 55°37' E 012°60'0 0.0
2018-May-18 21:57N 55°37' E 012°60'0 0.0
2018-May-18 21:30N 55°37' E 012°60'0 0.0
2018-May-18 21:00N 55°37' E 012°60'0 0.0
2018-May-18 20:30N 55°37' E 012°60'0 0.0
2018-May-18 20:00N 55°37' E 012°60'0 0.0
2018-May-18 19:27N 55°37' E 012°60'0 0.0
2018-May-18 19:00N 55°37' E 012°59'0 0.0
2018-May-18 18:27N 55°37' E 012°60'0 0.0
2018-May-18 17:57N 55°37' E 012°60'0 0.0
2018-May-18 17:21N 55°37' E 012°60'0 0.0
2018-May-18 17:00N 55°37' E 012°60'0 0.0
2018-May-18 16:30N 55°37' E 012°59'0 0.0
2018-May-18 16:00N 55°37' E 012°59'0 0.0
2018-May-18 15:21N 55°37' E 012°60'0 0.0
2018-May-18 14:51N 55°37' E 012°60'0 0.0
2018-May-18 14:21N 55°37' E 012°60'0 0.0
2018-May-18 13:59N 55°37' E 012°60'0 0.0
2018-May-18 13:30N 55°37' E 012°60'0 0.2
2018-May-18 13:01N 55°37' E 012°60'1 2.1
2018-May-18 12:30N 55°38' E 012°58'1 1.3
2018-May-18 12:01N 55°38' E 012°58'4 7.1
2018-May-18 11:30N 55°41' E 012°54'4 7.5
2018-May-18 11:01N 55°45' E 012°51'4 7.5
2018-May-18 10:30N 55°48' E 012°48'4 7.3
2018-May-18 10:01N 55°51' E 012°45'3 6.2
2018-May-18 09:30N 55°54' E 012°44'0 0.1
2018-May-18 09:01N 55°54' E 012°44'1 1.0
2018-May-18 08:30N 55°55' E 012°44'3 5.5
2018-May-18 08:01N 55°57' E 012°42'4 7.7
2018-May-18 07:31N 56°01' E 012°41'2 3.3
2018-May-18 06:58N 56°03' E 012°41'0 0.0
2018-May-18 06:28N 56°03' E 012°41'0 0.0
2018-May-18 02:58N 56°03' E 012°41'0 0.0
2018-May-18 01:46N 56°03' E 012°41'0 0.0
2018-May-18 00:52N 56°03' E 012°41'0 0.0
2018-May-18 00:13N 56°03' E 012°41'0 0.0
2018-May-17 23:58N 56°03' E 012°41'0 0.0
2018-May-17 23:28N 56°03' E 012°41'0 0.0
2018-May-17 22:58N 56°03' E 012°41'0 0.0
2018-May-17 22:25N 56°03' E 012°41'0 0.0
2018-May-17 21:55N 56°03' E 012°41'0 0.0
2018-May-17 21:28N 56°03' E 012°41'0 0.0
2018-May-17 20:58N 56°03' E 012°41'0 0.0
2018-May-17 20:28N 56°03' E 012°41'0 0.0
2018-May-17 19:58N 56°03' E 012°41'0 0.0
2018-May-17 19:28N 56°03' E 012°41'0 0.0
2018-May-17 18:58N 56°03' E 012°41'0 0.0
2018-May-17 18:28N 56°03' E 012°41'0 0.0
2018-May-17 17:58N 56°03' E 012°41'0 0.0
2018-May-17 17:28N 56°03' E 012°41'1 1.6
2018-May-17 17:00N 56°02' E 012°41'2 3.3
2018-May-17 16:31N 56°00' E 012°41'1 1.0
2018-May-17 16:01N 56°01' E 012°40'3 6.0
2018-May-17 15:30N 56°03' E 012°38'4 6.6
2018-May-17 14:58N 56°06' E 012°34'3 7.0
2018-May-17 14:30N 56°09' E 012°31'15 4.9
2018-May-17 11:26N 56°23' E 012°24'3 5.7
2018-May-17 10:56N 56°26' E 012°24'4 9.5
2018-May-17 10:28N 56°30' E 012°22'5 9.4
2018-May-17 09:59N 56°35' E 012°21'5 9.4
2018-May-17 09:28N 56°40' E 012°20'5 9.5
2018-May-17 08:58N 56°44' E 012°19'6 9.6
2018-May-17 08:23N 56°50' E 012°17'4 9.6
2018-May-17 08:00N 56°54' E 012°16'5 9.7
2018-May-17 07:31N 56°58' E 012°15'5 9.7
2018-May-17 07:01N 57°03' E 012°14'4 1.3
2018-May-17 04:23N 57°07' E 012°15'0 0.0
2018-May-17 03:05N 57°07' E 012°15'0 0.0
2018-May-17 02:56N 57°07' E 012°15'0 0.0
2018-May-17 02:29N 57°07' E 012°15'0 0.0
2018-May-17 01:56N 57°07' E 012°15'0 0.0
2018-May-17 01:14N 57°07' E 012°15'0 0.0
2018-May-17 00:59N 57°07' E 012°15'0 0.0
2018-May-17 00:20N 57°07' E 012°15'0 0.0
2018-May-16 23:59N 57°07' E 012°15'0 0.0
2018-May-16 23:29N 57°07' E 012°15'0 0.0
2018-May-16 22:44N 57°07' E 012°15'0 0.0
2018-May-16 22:29N 57°07' E 012°15'0 0.0
2018-May-16 21:59N 57°07' E 012°15'0 0.0
2018-May-16 21:29N 57°07' E 012°15'0 0.0
2018-May-16 20:56N 57°07' E 012°15'0 0.0
2018-May-16 20:26N 57°07' E 012°15'0 0.0
2018-May-16 19:50N 57°07' E 012°15'0 0.0
2018-May-16 19:29N 57°07' E 012°15'0 0.0
2018-May-16 18:47N 57°07' E 012°15'0 0.0
2018-May-16 18:29N 57°07' E 012°15'0 0.0
2018-May-16 17:59N 57°07' E 012°15'0 0.0
2018-May-16 17:23N 57°07' E 012°15'0 0.0
2018-May-16 17:00N 57°07' E 012°15'1 1.3
2018-May-16 16:31N 57°06' E 012°14'1 2.6
2018-May-16 16:00N 57°05' E 012°12'0 0.9
2018-May-16 15:29N 57°05' E 012°12'2 3.5
2018-May-16 15:00N 57°06' E 012°10'2 4.0
2018-May-16 14:30N 57°07' E 012°07'2 3.3
2018-May-16 14:01N 57°09' E 012°05'2 3.3
2018-May-16 13:30N 57°10' E 012°03'2 3.1
2018-May-16 13:00N 57°11' E 012°02'1 2.4
2018-May-16 12:30N 57°13' E 012°01'1 2.9
2018-May-16 12:00N 57°14' E 011°60'1 2.8
2018-May-16 11:30N 57°15' E 011°58'2 3.7
2018-May-16 11:00N 57°17' E 011°57'1 1.7
2018-May-16 10:30N 57°17' E 011°56'0 0.7
2018-May-16 10:01N 57°18' E 011°57'0 0.6
2018-May-16 09:29N 57°18' E 011°56'0 0.3
2018-May-16 09:00N 57°18' E 011°56'1 1.3
2018-May-16 08:31N 57°17' E 011°56'0 0.3
2018-May-16 08:00N 57°17' E 011°56'0 0.8
2018-May-16 07:31N 57°17' E 011°56'4 8.0
2018-May-16 07:00N 57°21' E 011°59'0 0.7
2018-May-16 06:25N 57°21' E 011°59'0 0.0
2018-May-16 05:58N 57°21' E 011°59'0 0.0
2018-May-16 05:28N 57°21' E 011°59'0 0.0
2018-May-16 04:58N 57°21' E 011°59'0 0.0
2018-May-16 04:25N 57°21' E 011°59'0 0.0
2018-May-16 03:58N 57°21' E 011°59'0 0.0
2018-May-16 03:25N 57°21' E 011°59'0 0.0
2018-May-16 02:52N 57°21' E 011°59'0 0.0
2018-May-16 02:25N 57°21' E 011°59'0 0.0
2018-May-16 01:58N 57°21' E 011°59'0 0.0
2018-May-16 01:28N 57°21' E 011°59'0 0.0
2018-May-16 00:40N 57°21' E 011°59'0 0.0
2018-May-16 00:16N 57°21' E 011°59'0 0.0
2018-May-15 23:46N 57°21' E 011°59'0 0.0
2018-May-15 23:28N 57°21' E 011°59'0 0.0
2018-May-15 22:58N 57°21' E 011°59'0 0.0
2018-May-15 22:28N 57°22' E 011°59'0 0.0
2018-May-15 21:52N 57°22' E 011°59'0 0.0
2018-May-15 21:28N 57°22' E 011°59'0 0.0
2018-May-15 20:58N 57°22' E 011°59'0 0.0
2018-May-15 20:28N 57°22' E 011°59'0 0.0
2018-May-15 19:58N 57°21' E 011°59'0 0.0
2018-May-15 19:28N 57°21' E 011°59'0 0.0
2018-May-15 18:58N 57°21' E 011°59'0 0.1
2018-May-15 18:30N 57°22' E 011°59'3 5.3
2018-May-15 18:00N 57°20' E 011°55'5 9.9
2018-May-15 17:30N 57°24' E 011°52'4 7.9
2018-May-15 17:00N 57°28' E 011°50'3 5.6
2018-May-15 16:31N 57°31' E 011°49'3 5.8
2018-May-15 16:01N 57°34' E 011°48'3 6.2
2018-May-15 15:30N 57°37' E 011°49'3 5.1
2018-May-15 15:00N 57°39' E 011°48'2 3.6
2018-May-15 14:31N 57°41' E 011°46'3 5.1
2018-May-15 14:00N 57°41' E 011°41'2 3.3
2018-May-15 13:29N 57°42' E 011°40'0 0.0
2018-May-15 12:59N 57°42' E 011°40'0 0.0
2018-May-15 12:30N 57°42' E 011°40'0 0.2
2018-May-15 12:01N 57°43' E 011°40'0 0.5
2018-May-15 11:30N 57°42' E 011°40'0 0.0
2018-May-15 11:00N 57°42' E 011°40'0 0.0
2018-May-15 10:30N 57°42' E 011°40'0 0.0
2018-May-15 10:00N 57°42' E 011°40'0 0.0
2018-May-15 09:30N 57°42' E 011°40'0 0.0
2018-May-15 09:00N 57°42' E 011°40'0 0.0
2018-May-15 08:30N 57°42' E 011°40'0 0.0
2018-May-15 08:00N 57°42' E 011°40'0 0.0
2018-May-15 07:30N 57°42' E 011°40'0 0.0
2018-May-15 07:00N 57°42' E 011°40'0 0.0
2018-May-15 06:30N 57°42' E 011°40'0 0.0
2018-May-15 06:00N 57°42' E 011°40'0 0.0
2018-May-15 05:30N 57°42' E 011°40'0 0.0
2018-May-15 05:00N 57°42' E 011°40'0 0.0
2018-May-15 04:30N 57°42' E 011°40'0 0.0
2018-May-15 04:00N 57°42' E 011°40'0 0.0
2018-May-15 03:30N 57°42' E 011°40'0 0.0
2018-May-15 03:00N 57°42' E 011°40'0 0.0
2018-May-15 02:30N 57°42' E 011°40'0 0.0
2018-May-15 02:00N 57°42' E 011°40'0 0.0
2018-May-15 01:30N 57°42' E 011°40'0 0.0
2018-May-15 01:00N 57°42' E 011°40'0 0.0
2018-May-15 00:30N 57°42' E 011°40'0 0.0
2018-May-15 00:00N 57°42' E 011°40'0 0.0
2018-May-14 23:30N 57°42' E 011°40'0 0.0
2018-May-14 23:00N 57°42' E 011°40'0 0.0
2018-May-14 22:30N 57°42' E 011°40'0 0.0
2018-May-14 22:00N 57°42' E 011°40'0 0.0
2018-May-14 21:30N 57°42' E 011°40'0 0.0
2018-May-14 21:00N 57°42' E 011°40'0 0.0
2018-May-14 20:30N 57°42' E 011°40'0 0.0
2018-May-14 20:00N 57°42' E 011°40'0 0.0
2018-May-14 19:30N 57°42' E 011°40'0 0.0
2018-May-14 19:00N 57°42' E 011°40'0 0.0
2018-May-14 18:30N 57°42' E 011°40'0 0.0
2018-May-14 18:00N 57°42' E 011°40'0 0.0
2018-May-14 17:30N 57°42' E 011°40'0 0.0
2018-May-14 17:00N 57°42' E 011°40'0 0.0
2018-May-14 16:30N 57°42' E 011°40'0 0.0
2018-May-14 16:00N 57°42' E 011°40'0 0.0
2018-May-14 15:30N 57°42' E 011°40'0 0.0
2018-May-14 15:00N 57°42' E 011°40'0 0.0
2018-May-14 14:30N 57°42' E 011°40'0 0.0
2018-May-14 14:00N 57°42' E 011°40'0 0.0
2018-May-14 13:30N 57°42' E 011°40'0 0.0
2018-May-14 13:00N 57°42' E 011°40'1 1.2
2018-May-14 12:30N 57°43' E 011°40'2 3.2
2018-May-14 12:00N 57°45' E 011°40'2 4.1
2018-May-14 11:31N 57°47' E 011°39'2 3.9
2018-May-14 11:00N 57°48' E 011°38'2 3.0
2018-May-14 10:30N 57°50' E 011°36'2 3.6
2018-May-14 10:00N 57°51' E 011°34'2 3.0
2018-May-14 09:30N 57°52' E 011°33'1 2.6
2018-May-14 09:01N 57°53' E 011°35'0 0.6
2018-May-14 08:28N 57°53' E 011°35'0 0.0
2018-May-14 07:58N 57°53' E 011°35'0 0.1
2018-May-14 07:28N 57°53' E 011°35'0 0.0
2018-May-14 06:58N 57°53' E 011°35'0 0.0
2018-May-14 06:28N 57°53' E 011°35'0 0.0
2018-May-14 05:58N 57°53' E 011°35'0 0.0
2018-May-14 05:28N 57°53' E 011°35'0 0.0
2018-May-14 04:58N 57°53' E 011°35'0 0.0
2018-May-14 04:28N 57°53' E 011°35'0 0.0
2018-May-14 03:58N 57°53' E 011°35'0 0.0
2018-May-14 03:25N 57°53' E 011°35'0 0.0
2018-May-14 02:58N 57°53' E 011°35'0 0.0
2018-May-14 02:28N 57°53' E 011°35'0 0.0
2018-May-14 01:58N 57°53' E 011°35'0 0.0
2018-May-14 01:28N 57°53' E 011°35'0 0.0
2018-May-14 00:58N 57°53' E 011°35'0 0.0
2018-May-14 00:28N 57°53' E 011°35'0 0.0
2018-May-13 23:58N 57°53' E 011°35'0 0.0
2018-May-13 23:28N 57°53' E 011°35'0 0.0
2018-May-13 22:58N 57°53' E 011°35'0 0.0
2018-May-13 22:28N 57°53' E 011°35'  

Dump ship's entire track history